createdAt,value
2017-11-19T00:02:21.545Z,81.50
2017-11-19T00:04:48.981Z,81.60
2017-11-19T00:07:17.195Z,81.60
2017-11-19T00:09:44.636Z,81.50
2017-11-19T00:12:12.100Z,81.60
2017-11-19T00:14:39.547Z,81.50
2017-11-19T00:17:07.764Z,81.80
2017-11-19T00:19:35.212Z,81.80
2017-11-19T00:22:02.653Z,81.90
2017-11-19T00:24:30.885Z,82.00
2017-11-19T00:26:58.358Z,82.00
2017-11-19T00:29:25.813Z,82.00
2017-11-19T00:31:53.264Z,82.10
2017-11-19T00:34:20.710Z,82.10
2017-11-19T00:36:48.182Z,82.10
2017-11-19T00:39:15.630Z,82.10
2017-11-19T00:41:43.081Z,82.20
2017-11-19T00:44:10.533Z,82.20
2017-11-19T00:46:37.986Z,82.20
2017-11-19T00:49:06.247Z,82.40
2017-11-19T00:51:33.693Z,82.40
2017-11-19T00:54:01.144Z,82.30
2017-11-19T00:56:28.590Z,82.40
2017-11-19T00:58:56.033Z,82.40
2017-11-19T01:01:23.507Z,82.40
2017-11-19T01:03:50.945Z,82.40
2017-11-19T01:06:19.148Z,82.50
2017-11-19T01:08:46.601Z,82.50
2017-11-19T01:11:14.058Z,82.70
2017-11-19T01:13:41.535Z,82.70
2017-11-19T01:16:08.981Z,83.20
2017-11-19T01:18:37.189Z,83.00
2017-11-19T01:21:04.646Z,83.00
2017-11-19T01:23:32.104Z,83.00
2017-11-19T01:25:59.562Z,82.90
2017-11-19T01:28:27.021Z,82.80
2017-11-19T01:30:54.489Z,82.60
2017-11-19T01:33:21.930Z,82.50
2017-11-19T01:35:50.129Z,82.30
2017-11-19T01:38:17.600Z,82.20
2017-11-19T01:40:45.074Z,82.40
2017-11-19T01:43:12.531Z,82.40
2017-11-19T01:45:39.979Z,82.50
2017-11-19T01:48:07.445Z,82.50
2017-11-19T01:50:34.884Z,82.20
2017-11-19T01:53:03.089Z,82.20
2017-11-19T01:55:30.537Z,82.00
2017-11-19T01:57:57.969Z,82.20
2017-11-19T02:00:26.188Z,82.10
2017-11-19T02:02:53.626Z,82.10
2017-11-19T02:05:21.865Z,82.20
2017-11-19T02:07:49.318Z,82.20
2017-11-19T02:10:16.769Z,82.20
2017-11-19T02:12:44.229Z,82.20
2017-11-19T02:15:11.669Z,82.20
2017-11-19T02:17:39.136Z,82.10
2017-11-19T02:20:06.573Z,82.10
2017-11-19T02:22:34.821Z,82.20
2017-11-19T02:25:02.274Z,82.20
2017-11-19T02:27:29.721Z,82.20
2017-11-19T02:29:57.181Z,82.10
2017-11-19T02:32:24.630Z,82.20
2017-11-19T02:34:52.085Z,82.20
2017-11-19T02:37:19.535Z,82.20
2017-11-19T02:39:47.764Z,82.20
2017-11-19T02:42:15.201Z,82.10
2017-11-19T02:44:42.670Z,82.10
2017-11-19T02:47:10.121Z,82.20
2017-11-19T02:49:37.552Z,82.20
2017-11-19T02:52:05.765Z,82.20
2017-11-19T02:54:33.212Z,82.20
2017-11-19T02:57:00.683Z,82.20
2017-11-19T02:59:28.136Z,82.20
2017-11-19T03:01:55.579Z,82.20
2017-11-19T03:04:23.790Z,82.20
2017-11-19T03:06:51.253Z,82.20
2017-11-19T03:09:18.718Z,82.20
2017-11-19T03:11:46.157Z,82.30
2017-11-19T03:14:13.615Z,82.30
2017-11-19T03:16:41.819Z,82.30
2017-11-19T03:19:09.277Z,82.30
2017-11-19T03:21:36.723Z,82.50
2017-11-19T03:24:04.946Z,82.50
2017-11-19T03:26:32.385Z,82.40
2017-11-19T03:28:59.853Z,82.50
2017-11-19T03:31:27.309Z,82.50
2017-11-19T03:33:54.747Z,82.50
2017-11-19T03:36:22.972Z,82.50
2017-11-19T03:38:50.424Z,82.50
2017-11-19T03:41:17.875Z,82.50
2017-11-19T03:43:45.308Z,82.50
2017-11-19T03:46:13.521Z,82.60
2017-11-19T03:48:40.963Z,82.60
2017-11-19T03:51:09.197Z,82.60
2017-11-19T03:53:36.650Z,82.50
2017-11-19T03:56:04.084Z,82.60
2017-11-19T03:58:32.439Z,82.50
2017-11-19T04:01:00.645Z,82.70
2017-11-19T04:03:28.087Z,82.60
2017-11-19T04:05:55.533Z,82.60
2017-11-19T04:08:23.770Z,82.70
2017-11-19T04:10:51.211Z,82.70
2017-11-19T04:13:18.657Z,82.70
2017-11-19T04:15:46.872Z,82.70
2017-11-19T04:18:14.314Z,82.70
2017-11-19T04:20:41.796Z,82.70
2017-11-19T04:23:09.242Z,82.70
2017-11-19T04:25:36.690Z,82.70
2017-11-19T04:28:04.142Z,82.70
2017-11-19T04:30:32.357Z,82.60
2017-11-19T04:32:59.819Z,82.60
2017-11-19T04:35:27.252Z,82.60
2017-11-19T04:37:54.692Z,82.60
2017-11-19T04:40:22.908Z,82.80
2017-11-19T04:42:50.340Z,82.80
2017-11-19T04:45:18.565Z,82.80
2017-11-19T04:47:46.012Z,82.80
2017-11-19T04:50:13.485Z,82.80
2017-11-19T04:52:40.936Z,82.90
2017-11-19T04:55:08.382Z,82.80
2017-11-19T04:57:35.838Z,82.80
2017-11-19T05:00:04.045Z,82.70
2017-11-19T05:02:31.502Z,82.70
2017-11-19T05:04:58.931Z,82.80
2017-11-19T05:07:27.164Z,82.80
2017-11-19T05:09:54.602Z,82.70
2017-11-19T05:12:22.041Z,82.80
2017-11-19T05:14:50.256Z,82.90
2017-11-19T05:17:17.708Z,82.90
2017-11-19T05:19:45.152Z,82.90
2017-11-19T05:22:13.352Z,82.80
2017-11-19T05:24:40.832Z,82.80
2017-11-19T05:27:08.261Z,82.80
2017-11-19T05:29:35.715Z,82.80
2017-11-19T05:32:03.944Z,83.00
2017-11-19T05:34:31.398Z,82.80
2017-11-19T05:36:58.885Z,82.90
2017-11-19T05:39:26.293Z,82.90
2017-11-19T05:41:53.756Z,82.90
2017-11-19T05:44:21.195Z,83.00
2017-11-19T05:46:49.410Z,83.00
2017-11-19T05:49:16.873Z,83.00
2017-11-19T05:51:44.322Z,83.00
2017-11-19T05:54:11.764Z,83.10
2017-11-19T05:56:39.975Z,83.00
2017-11-19T05:59:07.450Z,83.00
2017-11-19T06:01:34.901Z,83.10
2017-11-19T06:04:02.345Z,83.10
2017-11-19T06:06:29.804Z,83.10
2017-11-19T06:08:58.008Z,82.90
2017-11-19T06:11:25.457Z,82.90
2017-11-19T06:13:52.903Z,82.80
2017-11-19T06:16:21.141Z,82.80
2017-11-19T06:18:48.593Z,82.80
2017-11-19T06:21:16.041Z,82.70
2017-11-19T06:23:43.501Z,82.60
2017-11-19T06:26:10.924Z,82.70
2017-11-19T06:28:39.139Z,82.70
2017-11-19T06:31:06.588Z,82.70
2017-11-19T06:33:34.065Z,82.80
2017-11-19T06:36:01.513Z,82.80
2017-11-19T06:38:28.948Z,82.80
2017-11-19T06:40:56.405Z,82.80
2017-11-19T06:43:23.854Z,82.70
2017-11-19T06:45:51.321Z,82.70
2017-11-19T06:48:18.755Z,82.70
2017-11-19T06:50:46.217Z,82.70
2017-11-19T06:53:13.659Z,82.70
2017-11-19T06:55:41.189Z,83.40
2017-11-19T06:58:09.395Z,82.60
2017-11-19T07:00:36.840Z,82.60
2017-11-19T07:03:04.288Z,82.50
2017-11-19T07:05:32.525Z,82.50
2017-11-19T07:07:59.959Z,82.50
2017-11-19T07:10:27.409Z,82.40
2017-11-19T07:12:55.605Z,82.40
2017-11-19T07:15:23.060Z,82.30
2017-11-19T07:17:50.504Z,82.40
2017-11-19T07:20:18.725Z,82.40
2017-11-19T07:22:46.174Z,82.40
2017-11-19T07:25:13.625Z,82.40
2017-11-19T07:27:41.068Z,82.40
2017-11-19T07:30:09.290Z,82.50
2017-11-19T07:32:36.737Z,82.50
2017-11-19T07:35:04.192Z,82.50
2017-11-19T07:37:31.637Z,82.50
2017-11-19T07:39:59.856Z,82.50
2017-11-19T07:42:27.311Z,82.50
2017-11-19T07:44:54.771Z,82.50
2017-11-19T07:47:22.230Z,82.50
2017-11-19T07:49:49.700Z,82.60
2017-11-19T07:52:17.157Z,82.50
2017-11-19T07:54:44.608Z,82.50
2017-11-19T07:57:12.059Z,82.50
2017-11-19T07:59:39.500Z,82.50
2017-11-19T08:02:07.708Z,82.70
2017-11-19T08:04:35.157Z,82.50
2017-11-19T08:07:03.364Z,82.70
2017-11-19T08:09:30.799Z,82.70
2017-11-19T08:11:59.019Z,82.70
2017-11-19T08:14:26.469Z,82.70
2017-11-19T08:16:53.931Z,83.40
2017-11-19T08:19:21.374Z,82.80
2017-11-19T08:21:48.821Z,82.70
2017-11-19T08:24:17.033Z,82.90
2017-11-19T08:26:44.494Z,83.70
2017-11-19T08:29:11.950Z,82.80
2017-11-19T08:31:39.387Z,82.90
2017-11-19T08:34:07.611Z,82.80
2017-11-19T08:36:35.058Z,82.90
2017-11-19T08:39:02.499Z,83.00
2017-11-19T08:41:30.703Z,83.10
2017-11-19T08:43:58.158Z,83.10
2017-11-19T08:46:25.610Z,83.10
2017-11-19T08:48:53.059Z,83.10
2017-11-19T08:51:21.281Z,83.00
2017-11-19T08:53:48.734Z,83.00
2017-11-19T08:56:16.190Z,83.00
2017-11-19T08:58:43.628Z,83.10
2017-11-19T09:01:11.831Z,83.10
2017-11-19T09:03:39.286Z,83.10
2017-11-19T09:06:06.745Z,83.10
2017-11-19T09:08:34.184Z,83.10
2017-11-19T09:11:01.681Z,83.10
2017-11-19T09:13:29.137Z,83.10
2017-11-19T09:15:56.577Z,83.00
2017-11-19T09:35:44.497Z,83.00
2017-11-19T09:38:11.957Z,82.90
2017-11-19T09:40:39.407Z,83.00
2017-11-19T09:43:06.863Z,82.90
2017-11-19T09:45:35.069Z,83.00
2017-11-19T09:48:02.526Z,83.00
2017-11-19T09:50:29.984Z,83.10
2017-11-19T09:52:57.436Z,82.90
2017-11-19T09:55:24.890Z,82.90
2017-11-19T09:57:52.358Z,82.90
2017-11-19T10:00:19.801Z,83.10
2017-11-19T10:02:48.028Z,82.70
2017-11-19T10:05:15.478Z,82.70
2017-11-19T10:07:42.936Z,82.70
2017-11-19T10:10:10.440Z,82.70
2017-11-19T10:12:37.898Z,82.70
2017-11-19T10:15:05.342Z,82.70
2017-11-19T10:17:32.792Z,82.80
2017-11-19T10:20:00.248Z,82.70
2017-11-19T10:22:27.697Z,82.70
2017-11-19T10:24:55.154Z,82.70
2017-11-19T10:44:42.484Z,82.50
2017-11-19T10:47:09.945Z,82.50
2017-11-19T10:49:37.384Z,82.10
2017-11-19T10:52:04.827Z,82.10
2017-11-19T10:54:32.291Z,82.30
2017-11-19T10:56:59.733Z,82.20
2017-11-19T10:59:28.087Z,82.00
2017-11-19T11:01:55.538Z,81.90
2017-11-19T11:04:23.005Z,82.10
2017-11-19T11:06:50.449Z,82.00
2017-11-19T11:09:17.909Z,81.80
2017-11-19T11:11:45.365Z,82.10
2017-11-19T11:14:12.833Z,82.20
2017-11-19T11:16:40.277Z,82.30
2017-11-19T11:19:07.971Z,82.20
2017-11-19T11:21:35.449Z,81.80
2017-11-19T11:24:02.874Z,81.50
2017-11-19T11:26:30.317Z,80.80
2017-11-19T11:28:57.793Z,80.80
2017-11-19T11:31:25.232Z,81.40
2017-11-19T11:33:52.695Z,81.20
2017-11-19T11:53:42.506Z,81.30
2017-11-19T11:56:09.963Z,80.40
2017-11-19T12:15:58.054Z,78.80
2017-11-19T12:18:25.511Z,78.40
2017-11-19T12:20:52.973Z,79.40
2017-11-19T12:23:20.425Z,78.60
2017-11-19T12:25:47.881Z,78.30
2017-11-19T12:28:15.351Z,76.90
2017-11-19T12:30:42.813Z,76.90
2017-11-19T12:33:10.248Z,76.90
2017-11-19T12:35:37.701Z,77.60
2017-11-19T12:38:05.146Z,78.20
2017-11-19T12:40:32.600Z,77.30
2017-11-19T12:43:00.049Z,76.90
2017-11-19T12:45:28.492Z,77.40
2017-11-19T12:47:55.933Z,77.50
2017-11-19T12:50:23.377Z,77.60
2017-11-19T12:52:50.821Z,78.60
2017-11-19T13:12:38.876Z,77.40
2017-11-19T13:15:06.330Z,76.60
2017-11-19T13:17:33.795Z,76.60
2017-11-19T13:20:01.241Z,75.80
2017-11-19T13:22:28.693Z,75.60
2017-11-19T13:24:56.136Z,76.00
2017-11-19T13:27:23.576Z,76.80
2017-11-19T13:29:51.804Z,75.30
2017-11-19T13:32:19.237Z,75.40
2017-11-19T13:34:47.461Z,76.00
2017-11-19T13:37:14.920Z,76.00
2017-11-19T13:39:42.382Z,76.80
2017-11-19T13:42:09.828Z,76.20
2017-11-19T13:44:37.277Z,76.90
2017-11-19T13:47:04.725Z,76.50
2017-11-19T13:49:32.952Z,77.90
2017-11-19T13:52:00.410Z,77.90
2017-11-19T13:54:27.854Z,78.40
2017-11-19T13:56:55.318Z,78.80
2017-11-19T13:59:22.753Z,79.10
2017-11-19T14:01:50.977Z,79.30
2017-11-19T14:04:18.422Z,79.30
2017-11-19T14:06:45.932Z,79.30
2017-11-19T14:09:13.393Z,79.50
2017-11-19T14:11:40.852Z,79.60
2017-11-19T14:14:08.314Z,79.70
2017-11-19T14:16:35.774Z,79.90
2017-11-19T14:19:03.218Z,79.90
2017-11-19T14:21:30.681Z,80.00
2017-11-19T14:23:58.133Z,80.30
2017-11-19T14:26:25.593Z,80.20
2017-11-19T14:28:53.044Z,80.20
2017-11-19T14:31:20.497Z,80.20
2017-11-19T14:33:47.949Z,79.70
2017-11-19T14:36:16.169Z,79.30
2017-11-19T14:38:43.617Z,79.30
2017-11-19T14:41:11.137Z,79.00
2017-11-19T14:43:39.352Z,79.20
2017-11-19T14:46:06.809Z,79.20
2017-11-19T14:48:34.253Z,78.60
2017-11-19T14:51:02.473Z,78.20
2017-11-19T14:53:29.922Z,78.20
2017-11-19T14:55:57.373Z,78.80
2017-11-19T14:58:24.817Z,78.90
2017-11-19T15:00:53.077Z,79.30
2017-11-19T15:03:20.512Z,79.30
2017-11-19T15:05:47.957Z,79.50
2017-11-19T15:08:15.412Z,79.90
2017-11-19T15:10:42.877Z,79.90
2017-11-19T15:13:10.343Z,79.70
2017-11-19T15:15:42.813Z,79.80
2017-11-19T15:18:10.278Z,80.10
2017-11-19T15:20:38.547Z,80.50
2017-11-19T15:23:06.016Z,81.10
2017-11-19T15:25:33.460Z,81.40
2017-11-19T15:28:01.681Z,81.40
2017-11-19T15:30:29.142Z,81.40
2017-11-19T15:32:56.744Z,81.60
2017-11-19T15:35:24.181Z,81.40
2017-11-19T15:37:51.653Z,81.60
2017-11-19T15:40:19.110Z,81.60
2017-11-19T15:42:46.559Z,81.30
2017-11-19T15:45:14.001Z,81.30
2017-11-19T15:47:41.449Z,81.20
2017-11-19T15:50:08.904Z,81.30
2017-11-19T15:52:36.357Z,81.40
2017-11-19T15:55:04.558Z,81.90
2017-11-19T15:57:32.014Z,81.80
2017-11-19T15:59:59.458Z,81.80
2017-11-19T16:02:27.677Z,81.60
2017-11-19T16:04:55.130Z,81.60
2017-11-19T16:07:22.574Z,82.20
2017-11-19T16:09:50.022Z,82.30
2017-11-19T16:12:18.250Z,82.60
2017-11-19T16:14:45.712Z,82.50
2017-11-19T16:17:13.171Z,82.90
2017-11-19T16:19:40.618Z,83.20
2017-11-19T16:22:08.071Z,82.60
2017-11-19T16:24:35.526Z,82.30
2017-11-19T16:27:03.765Z,82.60
2017-11-19T16:29:31.208Z,82.50
2017-11-19T16:31:58.648Z,82.30
2017-11-19T16:34:26.101Z,82.00
2017-11-19T16:36:53.574Z,81.90
2017-11-19T16:39:21.031Z,82.00
2017-11-19T16:41:48.473Z,81.80
2017-11-19T16:44:16.697Z,82.00
2017-11-19T16:46:44.134Z,81.90
2017-11-19T16:49:11.592Z,81.90
2017-11-19T16:51:39.037Z,81.90
2017-11-19T17:11:29.100Z,82.30
2017-11-19T17:13:56.561Z,82.40
2017-11-19T17:16:24.005Z,82.60
2017-11-19T17:18:51.467Z,82.50
2017-11-19T17:21:18.918Z,82.60
2017-11-19T17:23:47.155Z,82.50
2017-11-19T17:26:14.596Z,82.50
2017-11-19T17:28:42.062Z,82.50
2017-11-19T17:31:09.522Z,82.60
2017-11-19T17:33:36.977Z,82.60
2017-11-19T17:36:10.035Z,82.70
2017-11-19T17:38:38.269Z,82.90
2017-11-19T17:41:05.716Z,82.80
2017-11-19T17:43:33.165Z,82.90
2017-11-19T17:46:00.613Z,82.90
2017-11-19T17:48:28.835Z,83.50
2017-11-19T17:50:56.286Z,82.80
2017-11-19T17:53:23.737Z,82.80
2017-11-19T17:55:51.178Z,82.80
2017-11-19T17:58:19.419Z,82.80
2017-11-19T18:00:46.869Z,82.80
2017-11-19T18:20:35.048Z,82.40
2017-11-19T18:23:02.506Z,82.90
2017-11-19T18:25:29.973Z,82.90
2017-11-19T18:27:57.426Z,82.90
2017-11-19T18:30:24.883Z,82.90
2017-11-19T18:32:52.315Z,82.80
2017-11-19T18:35:20.559Z,82.80
2017-11-19T18:37:48.044Z,82.80
2017-11-19T18:40:15.499Z,82.70
2017-11-19T18:42:42.998Z,83.10
2017-11-19T18:45:10.453Z,82.60
2017-11-19T18:47:38.689Z,82.60
2017-11-19T18:50:06.141Z,82.60
2017-11-19T18:52:33.593Z,82.60
2017-11-19T18:55:01.050Z,82.60
2017-11-19T18:57:28.489Z,82.60
2017-11-19T18:59:55.936Z,82.50
2017-11-19T19:02:24.153Z,82.60
2017-11-19T19:04:51.603Z,82.50
2017-11-19T19:07:19.049Z,82.60
2017-11-19T19:09:47.286Z,82.60
2017-11-19T19:12:14.729Z,82.60
2017-11-19T19:32:03.633Z,82.50
2017-11-19T19:34:31.084Z,82.50
2017-11-19T19:36:58.546Z,82.50
2017-11-19T19:39:26.006Z,82.40
2017-11-19T19:41:53.455Z,82.40
2017-11-19T19:44:20.899Z,82.50
2017-11-19T19:46:49.125Z,82.50
2017-11-19T19:49:16.582Z,82.40
2017-11-19T19:51:44.036Z,82.40
2017-11-19T19:54:11.495Z,82.40
2017-11-19T19:56:38.963Z,82.40
2017-11-19T19:59:06.436Z,82.40
2017-11-19T20:01:33.892Z,83.20
2017-11-19T20:04:01.356Z,82.40
2017-11-19T20:06:28.831Z,82.50
2017-11-19T20:08:56.296Z,82.50
2017-11-19T20:11:23.761Z,82.50
2017-11-19T20:13:51.217Z,82.60
2017-11-19T20:16:18.689Z,82.50
2017-11-19T20:18:46.153Z,82.50
2017-11-19T20:21:13.636Z,82.50
2017-11-19T20:23:41.086Z,82.60
2017-11-19T20:26:08.548Z,82.50
2017-11-19T20:28:36.002Z,82.50
2017-11-19T20:31:03.457Z,82.50
2017-11-19T20:33:30.932Z,82.40
2017-11-19T20:35:58.392Z,82.40
2017-11-19T20:38:25.872Z,82.50
2017-11-19T20:40:53.325Z,82.50
2017-11-19T20:43:20.781Z,82.40
2017-11-19T20:45:48.263Z,82.50
2017-11-19T20:48:15.713Z,82.50
2017-11-19T20:50:43.185Z,82.50
2017-11-19T20:53:10.628Z,82.50
2017-11-19T20:55:38.105Z,82.50
2017-11-19T20:58:05.555Z,82.60
2017-11-19T21:00:33.008Z,82.50
2017-11-19T21:03:00.495Z,82.60
2017-11-19T21:05:27.965Z,82.50
2017-11-19T21:07:55.433Z,82.60
2017-11-19T21:10:22.903Z,82.50
2017-11-19T21:12:56.152Z,82.50
2017-11-19T21:32:41.852Z,82.20
2017-11-19T21:35:09.312Z,82.20
2017-11-19T21:37:36.758Z,82.20
2017-11-19T21:40:04.979Z,82.20
2017-11-19T21:42:32.419Z,82.20
2017-11-19T21:44:59.869Z,82.20
2017-11-19T21:47:28.100Z,82.20
2017-11-19T21:49:55.552Z,82.20
2017-11-19T21:52:23.040Z,82.30
2017-11-19T21:54:50.479Z,82.30
2017-11-19T21:57:17.918Z,82.40
2017-11-19T21:59:45.369Z,82.40
2017-11-19T22:02:12.823Z,82.50
2017-11-19T22:04:41.025Z,82.60
2017-11-19T22:07:08.466Z,82.50
2017-11-19T22:09:35.933Z,82.60
2017-11-19T22:12:03.367Z,82.60
2017-11-19T22:14:30.818Z,82.60
2017-11-19T22:16:59.056Z,83.20
2017-11-19T22:19:26.517Z,82.70
2017-11-19T22:21:53.969Z,82.60
2017-11-19T22:24:21.418Z,82.60
2017-11-19T22:26:49.667Z,82.70
2017-11-19T22:29:17.104Z,82.70
2017-11-19T22:31:44.557Z,82.70
2017-11-19T22:34:12.017Z,82.70
2017-11-19T22:36:39.457Z,82.60
2017-11-19T22:39:06.929Z,82.70
2017-11-19T22:41:34.361Z,82.70
2017-11-19T22:44:02.564Z,82.70
2017-11-19T22:46:29.995Z,82.60
2017-11-19T22:48:58.236Z,82.60
2017-11-19T22:51:25.692Z,82.60
2017-11-19T22:53:53.152Z,82.60
2017-11-19T22:56:20.608Z,82.60
2017-11-19T22:58:48.063Z,82.60
2017-11-19T23:01:15.527Z,82.60
2017-11-19T23:03:42.973Z,82.60
2017-11-19T23:06:10.425Z,82.60
2017-11-19T23:08:38.666Z,82.60
2017-11-19T23:11:06.112Z,82.60
2017-11-19T23:13:33.580Z,82.50
2017-11-19T23:16:01.025Z,82.50
2017-11-19T23:18:28.493Z,82.30
2017-11-19T23:20:55.955Z,82.50
2017-11-19T23:23:23.447Z,82.50
2017-11-19T23:25:50.909Z,82.70
2017-11-19T23:28:18.373Z,82.90
2017-11-19T23:30:45.844Z,82.90
2017-11-19T23:33:13.300Z,83.10
2017-11-19T23:35:40.749Z,83.10
2017-11-19T23:38:08.207Z,83.10
2017-11-19T23:40:35.665Z,83.20
2017-11-19T23:43:03.118Z,83.30
2017-11-19T23:45:30.566Z,83.30
2017-11-19T23:47:58.030Z,83.40
2017-11-19T23:50:25.480Z,83.30
2017-11-19T23:52:52.954Z,83.40
2017-11-19T23:55:20.404Z,83.30
2017-11-19T23:57:47.860Z,83.40
